AirNav   Air Wisconsin pilot careers
 
 1558 users online  

7CO6 Vantage View Airport
Rush, Colorado, USA

GOING TO RUSH?


FAA INFORMATION EFFECTIVE 29 MARCH 2018

Location

FAA Identifier: 7CO6
Lat/Long: 38-45-37.0000N / 104-06-05.0000W
38-45.616667N / 104-06.083333W
38.7602778 / -104.1013889
(estimated)
Elevation: 5780 ft. / 1762 m (estimated)
From city: 5 miles S of RUSH, CO
Time zone: UTC -6 (UTC -7 during Standard Time)
Zip code: 80864

Airport Operations

Airport use: Private use. Permission required prior to landing
Activation date: 08/2009
Control tower: no
ARTCC: DENVER CENTER
FSS: DENVER FLIGHT SERVICE STATION
Attendance: UNATNDD
Segmented circle: no

Airport Communications

WX ASOS at CO90 (9 nm W): 121.425 (719-683-3346)

Nearby radio navigation aids

VOR radial/distance  VOR name  Freq  Var
HGOr254/22.7HUGO VOR/DME112.1007E
BRKr106/27.2BLACK FOREST VOR/DME112.5008E
FCSr069/31.1BUTTS VOR/DME108.8012E
PUBr021/31.9PUEBLO VORTAC116.7008E

 
NDB name  Hdg/Dist  Freq  Var  ID
IRONHORSE069/30.933512EIHS .. .... ...

Airport Services

Runway Information

Runway 17/35

Dimensions: 2200 x 75 ft. / 671 x 23 m
Surface: turf
RUNWAY 17  RUNWAY 35
Traffic pattern: leftleft

Airport Ownership and Management from official FAA records

Ownership: Privately-owned
Owner: SAM DUPRE
18205 GRAY MARE LANE
PEYTON, CO 80831
Phone 719-362-3349
Manager: SAM DUPRE
18205 GRAY MARE LANE
PEYTON, CO 80831
Phone 719-362-3349

Additional Remarks

OWNER DESIRES ARPT NOT BE CHARTED.

Instrument Procedures

There are no published instrument procedures at 7CO6.

Some nearby airports with instrument procedures:

KCOS - City of Colorado Springs Municipal Airport (28 nm W)
KPUB - Pueblo Memorial Airport (34 nm SW)
KLHX - La Junta Municipal Airport (51 nm SE)
1V6 - Fremont County Airport (51 nm SW)
KAPA - Centennial Airport (60 nm NW)
 
Loc | Ops | Rwys | IFR | FBO | Links
Com | Nav | Svcs | Stats | Notes

AirNav Hotels Sweepstakes
 
Aerial photo
No photo
 
Sectional chart

 
Airport distance calculator
Flying to Vantage View Airport? Find the distance to fly.

From to 7CO6

Sunrise and sunset
Times for 20-Apr-2018
 Local
(UTC-6)
 Zulu
(UTC)
Morning civil twilight05:4611:46
Sunrise06:1412:14
Sunset19:3701:37
Evening civil twilight20:0502:05

Current date and time
Zulu (UTC)  20-Apr-2018 16:16:34
Local (UTC-6)  20-Apr-2018 10:16:34
 
METAR
KFLY 
25nm NW 
201555Z AUTO 14020G26KT 10SM OVC041 04/M03 A2999 RMK AO2 T00371031
KCOS 
29nm W 
201554Z 13016KT 10SM BKN050 BKN120 06/M03 A2998 RMK AO2 SLP130 T00611028
KFCS 
32nm W 
201558Z AUTO 12013KT 10SM SCT055 08/M03 A2996 RMK AO2 SLP135 T00821027 $
KPUB 
34nm SW 
201553Z 12022G29KT 10SM CLR 13/M01 A2990 RMK AO2 PK WND 10033/1523 SLP081 T01281011
KAFF 
36nm W 
201558Z AUTO 14015G22KT 10SM FEW034 OVC048 06/M04 A2997 RMK AO2 PK WND 14026/26 SLP118 T00631039
KLIC 
37nm NE 
201555Z AUTO 13023G33KT 10SM OVC048 02/M01 A2999 RMK AO2 PK WND 13033/1554 RAB03E09UPB09E16SNE03B16E46 TSE1458 SLP142 P0003 T00171006
KMNH 
37nm NW 
201553Z AUTO 16027G36KT 10SM CLR 05/M02 A2995 RMK AO2
TAF
KCOS 
29nm W 
201207Z 2012/2112 12010KT P6SM BKN080 FM201300 15015KT P6SM BKN025 OVC100 FM201700 13020G30KT P6SM -SHRA OVC015 FM202100 12015G25KT 4SM -SHRA OVC010 FM210100 11012KT 3SM -SHRASN OVC005 FM210700 03008KT P6SM VCSH OVC010
KFCS 
32nm W 
201310Z 2013/2119 14012KT 9999 SCT080 BKN120 QNH2992INS BECMG 2014/2015 14015G25KT 9999 VCSH BKN080 BKN120 620806 520009 QNH2987INS BECMG 2017/2018 13015G25KT 9000 -SHRA BKN025 OVC050 620258 520009 QNH2980INS BECMG 2021/2022 13012G20KT 8000 -SHRA BR BKN015 OVC025 620159 510009 QNH2981INS BECMG 2102/2103 12012KT 4800 -RA BR OVC010 620109 QNH2986INS BECMG 2106/2107 02009KT 9999 NSW SCT020 BKN050 620503 QNH2990INS BECMG 2113/2114 02010G15KT 9999 SCT050 QNH3000INS TX08/2019Z TN02/2112Z
KPUB 
34nm SW 
201207Z 2012/2112 12022G32KT P6SM SCT050 FM201700 14018G28KT P6SM VCSH BKN040 FM202000 14016G26KT P6SM -SHRA BKN050 FM210000 09013G23KT P6SM VCSH BKN050 FM210500 03012KT P6SM BKN020
KAFF 
36nm W 
201108Z 2011/2117 16010G15KT 9999 FEW030 SCT050 BKN100 WS020/15030KT 520002 QNH2995INS BECMG 2013/2014 15012G20KT 9999 BKN020 BKN050 OVC100 620209 520009 QNH2992INS BECMG 2015/2016 16015G25KT 9999 VCSH BKN015 OVC100 620159 520009 QNH2989INS BECMG 2016/2017 16015G25KT 9000 -SHRA BKN010 OVC050 620109 520009 QNH2988INS BECMG 2020/2021 14018G28KT 8000 -SHRA VCTS BKN008 OVC025CB 620087 520009 QNH2990INS BECMG 2023/2024 13012G18KT 4800 -SHRASN BR OVC005 620059 520009 QNH2993INS BECMG 2105/2106 34009KT
NOTAMs
Click for the latest NOTAMs
NOTAMs are issued by the DoD/FAA and will open in a separate window not controlled by AirNav.

 

 
 

Would you like to see your business listed on this page?

 If your business provides an interesting product or service to pilots, flight crews, aircraft, or users of the Vantage View Airport, you should consider listing it here.  To start the listing process, click on the button below
 
Add a business
 

Other Pages about Vantage View Airport

Update a link
 
Copyright © AirNav, LLC. All rights reserved. Privacy Policy  Contact